Time;durP1;ratioP1;P1;durP2;ratioP2;P2;SDS_P1;SDS_P2;PMS_P1;PMS_P2;Temp;Humidity;BMP_temperature;BMP_pressure;BME280_temperature;BME280_humidity;BME280_pressure;Samples;Min_cycle;Max_cycle;Signal;HPM_P1;HPM_P2
2023/01/17 00:02:04;;;;;;;2.65;0.70;;;4.40;99.90;;;;;;4856477;29;20041;-91
2023/01/17 00:10:14;;;;;;;2.55;0.70;;;4.40;99.90;;;;;;4861649;29;20112;-90
2023/01/17 00:12:49;;;;;;;1.13;0.40;;;4.40;99.90;;;;;;4860359;29;20097;-92
2023/01/17 00:15:18;;;;;;;1.38;0.70;;;4.30;99.90;;;;;;4869665;29;20041;-90
2023/01/17 00:17:44;;;;;;;2.05;0.80;;;4.40;99.90;;;;;;4860174;29;20045;-91
2023/01/17 01:35:18;;;;;;;4.72;0.85;;;3.70;99.90;;;;;;4862377;29;20515;-92
2023/01/17 01:37:44;;;;;;;6.38;0.85;;;3.70;99.90;;;;;;4856416;29;20037;-91
2023/01/17 01:40:10;;;;;;;4.90;0.70;;;3.80;99.90;;;;;;4860103;29;20101;-92
2023/01/17 01:42:36;;;;;;;6.40;1.10;;;3.70;99.90;;;;;;4881295;29;20387;-91
2023/01/17 01:45:15;;;;;;;5.95;0.88;;;3.70;99.90;;;;;;4865213;29;20052;-91
2023/01/17 01:47:41;;;;;;;6.35;0.85;;;3.80;99.90;;;;;;4864417;29;20067;-91
2023/01/17 01:50:09;;;;;;;7.03;1.00;;;3.70;99.90;;;;;;4862093;29;20127;-91
2023/01/17 01:52:39;;;;;;;3.85;0.75;;;3.70;99.90;;;;;;4871285;29;20057;-90
2023/01/17 01:55:12;;;;;;;4.95;0.73;;;3.80;99.90;;;;;;4863701;29;20045;-91
2023/01/17 01:57:41;;;;;;;8.07;1.10;;;3.80;99.90;;;;;;4856939;29;20152;-89
2023/01/17 02:00:13;;;;;;;6.65;0.90;;;3.70;99.90;;;;;;4880248;29;20094;-91
2023/01/17 02:02:41;;;;;;;4.72;1.10;;;3.70;99.90;;;;;;4879437;29;20405;-91
2023/01/17 02:05:09;;;;;;;6.93;0.80;;;3.70;99.90;;;;;;4847309;29;20065;-91
2023/01/17 02:08:17;;;;;;;5.88;0.90;;;3.80;99.90;;;;;;4863495;29;20049;-91
2023/01/17 02:10:43;;;;;;;8.35;1.15;;;3.70;99.90;;;;;;4859216;29;20541;-91
2023/01/17 02:13:09;;;;;;;5.43;0.93;;;3.70;99.90;;;;;;4878958;29;20049;-91
2023/01/17 02:15:47;;;;;;;4.32;0.73;;;3.70;99.90;;;;;;4875607;29;20045;-91
2023/01/17 02:18:33;;;;;;;5.13;0.75;;;3.70;99.90;;;;;;4864398;29;20192;-91
2023/01/17 02:21:08;;;;;;;9.38;1.35;;;3.70;99.90;;;;;;4862391;29;20053;-91
2023/01/17 02:24:02;;;;;;;5.85;0.90;;;3.70;99.90;;;;;;4862973;29;20045;-90
2023/01/17 02:26:33;;;;;;;4.10;0.75;;;3.70;99.90;;;;;;4828294;29;20076;-91
2023/01/17 02:29:10;;;;;;;6.55;1.00;;;3.70;99.90;;;;;;4859343;29;20098;-90
2023/01/17 02:31:42;;;;;;;5.63;0.88;;;3.70;99.90;;;;;;4854676;29;20495;-91
2023/01/17 02:34:23;;;;;;;7.65;0.90;;;3.70;99.90;;;;;;4878583;29;20129;-90
2023/01/17 02:37:02;;;;;;;5.70;0.77;;;3.70;99.90;;;;;;4863645;29;20103;-91
2023/01/17 02:39:35;;;;;;;5.22;0.73;;;3.70;99.90;;;;;;4865920;29;20046;-92
2023/01/17 02:42:06;;;;;;;6.57;0.88;;;3.70;99.90;;;;;;4866230;29;20414;-92
2023/01/17 02:44:42;;;;;;;5.90;0.77;;;3.70;99.90;;;;;;4869017;29;20049;-91
2023/01/17 02:47:29;;;;;;;7.50;0.70;;;3.70;99.90;;;;;;4868767;29;20144;-91
2023/01/17 02:50:03;;;;;;;7.70;1.00;;;3.80;99.90;;;;;;4871780;29;20406;-91
2023/01/17 02:52:47;;;;;;;6.07;0.90;;;3.70;99.90;;;;;;4861032;29;20046;-93
2023/01/17 02:55:30;;;;;;;6.97;0.98;;;3.70;99.90;;;;;;4862739;29;20057;-92
2023/01/17 02:58:20;;;;;;;5.28;0.60;;;3.80;99.90;;;;;;4879933;29;20049;-93
2023/01/17 03:01:06;;;;;;;8.13;0.73;;;3.80;99.90;;;;;;4867752;29;20045;-93
2023/01/17 03:03:34;;;;;;;7.15;0.70;;;3.70;99.90;;;;;;4868140;29;20167;-94
2023/01/17 03:06:14;;;;;;;6.45;1.38;;;3.70;99.90;;;;;;4872237;29;20049;-92
2023/01/17 03:08:43;;;;;;;7.22;0.90;;;3.70;99.90;;;;;;4865863;29;20062;-93
2023/01/17 03:11:09;;;;;;;5.15;0.85;;;3.70;99.90;;;;;;4857994;29;20045;-94
2023/01/17 03:13:35;;;;;;;9.73;1.20;;;3.70;99.90;;;;;;4862965;29;20073;-93
2023/01/17 03:16:26;;;;;;;7.78;0.90;;;3.70;99.90;;;;;;4856282;29;20037;-92
2023/01/17 03:18:54;;;;;;;8.75;0.82;;;3.60;99.90;;;;;;4846448;29;20380;-93
2023/01/17 03:21:21;;;;;;;4.53;0.90;;;3.60;99.90;;;;;;4856774;29;20478;-93
2023/01/17 03:23:47;;;;;;;5.85;1.08;;;3.60;99.90;;;;;;4864703;29;20037;-93
2023/01/17 03:26:12;;;;;;;8.65;0.80;;;3.60;99.90;;;;;;4870629;29;20060;-93
2023/01/17 03:28:38;;;;;;;7.03;1.02;;;3.60;99.90;;;;;;4863706;29;20506;-93
2023/01/17 03:31:04;;;;;;;7.13;0.90;;;3.60;99.90;;;;;;4864171;29;20057;-93
2023/01/17 03:33:29;;;;;;;7.70;1.08;;;3.60;99.90;;;;;;4863945;29;20049;-93
2023/01/17 03:35:56;;;;;;;5.82;1.10;;;3.60;99.90;;;;;;4870843;29;20037;-93
2023/01/17 03:38:24;;;;;;;5.32;0.70;;;3.60;99.90;;;;;;4878634;29;20052;-92
2023/01/17 03:40:50;;;;;;;6.13;1.00;;;3.60;99.90;;;;;;4873858;29;20142;-93
2023/01/17 03:43:15;;;;;;;5.38;0.85;;;3.60;99.90;;;;;;4861059;29;20502;-94
2023/01/17 03:45:41;;;;;;;7.78;1.25;;;3.60;99.90;;;;;;4861280;29;20080;-93
2023/01/17 03:48:06;;;;;;;6.72;0.77;;;3.60;99.90;;;;;;4872808;29;20434;-93
2023/01/17 03:50:32;;;;;;;4.90;0.63;;;3.60;99.90;;;;;;4877289;29;20049;-93
2023/01/17 03:52:58;;;;;;;8.80;0.85;;;3.60;99.90;;;;;;4880028;29;20501;-93
2023/01/17 03:55:23;;;;;;;6.18;0.90;;;3.60;99.90;;;;;;4875620;29;20033;-94
2023/01/17 03:57:49;;;;;;;6.38;0.70;;;3.60;99.90;;;;;;4862117;29;20058;-93
2023/01/17 04:00:15;;;;;;;6.75;1.00;;;3.60;99.90;;;;;;4862644;29;20495;-93
2023/01/17 04:02:41;;;;;;;6.32;0.80;;;3.60;99.90;;;;;;4879164;29;20542;-93
2023/01/17 04:05:07;;;;;;;3.75;0.90;;;3.60;99.90;;;;;;4879313;29;20041;-93
2023/01/17 04:07:33;;;;;;;5.90;0.98;;;3.60;99.90;;;;;;4873918;29;20048;-93
2023/01/17 04:09:58;;;;;;;8.45;1.02;;;3.60;99.90;;;;;;4861792;29;20049;-93
2023/01/17 04:12:24;;;;;;;4.00;0.50;;;3.50;99.90;;;;;;4861125;29;20136;-93
2023/01/17 04:14:50;;;;;;;7.25;0.80;;;3.50;99.90;;;;;;4860801;29;20049;-92
2023/01/17 04:17:18;;;;;;;6.03;0.82;;;3.50;99.90;;;;;;4882228;29;20048;-93
2023/01/17 04:19:44;;;;;;;7.75;1.10;;;3.50;99.90;;;;;;4869245;29;20049;-93
2023/01/17 04:22:09;;;;;;;6.10;0.80;;;3.50;99.90;;;;;;4860214;29;20048;-93
2023/01/17 04:24:35;;;;;;;8.63;0.95;;;3.50;99.90;;;;;;4860660;29;20074;-93
2023/01/17 04:27:01;;;;;;;7.28;0.80;;;3.50;99.90;;;;;;4845544;29;20057;-93
2023/01/17 04:29:26;;;;;;;6.70;1.90;;;3.40;99.90;;;;;;4860456;29;20136;-93
2023/01/17 04:31:52;;;;;;;5.43;0.70;;;3.40;99.90;;;;;;4862066;29;20144;-94
2023/01/17 04:34:17;;;;;;;8.73;0.88;;;3.40;99.90;;;;;;4860642;29;20042;-93
2023/01/17 04:36:43;;;;;;;7.20;0.98;;;3.40;99.90;;;;;;4860629;29;20411;-93
2023/01/17 04:39:09;;;;;;;3.90;0.70;;;3.40;99.90;;;;;;4873427;29;20128;-94
2023/01/17 04:41:34;;;;;;;5.15;0.73;;;3.30;99.90;;;;;;4880283;29;20053;-93
2023/01/17 04:44:00;;;;;;;5.03;0.82;;;3.40;99.90;;;;;;4863713;29;20057;-95
2023/01/17 04:46:27;;;;;;;6.15;1.00;;;3.30;99.90;;;;;;4880225;29;20130;-93
2023/01/17 04:48:52;;;;;;;7.72;1.13;;;3.30;99.90;;;;;;4880439;29;20068;-93
2023/01/17 04:51:18;;;;;;;9.80;0.93;;;3.30;99.90;;;;;;4878477;29;20057;-94
2023/01/17 04:53:43;;;;;;;5.07;1.13;;;3.30;99.90;;;;;;4863820;29;20577;-93
2023/01/17 04:56:09;;;;;;;9.27;0.95;;;3.20;99.90;;;;;;4879080;29;20056;-94
2023/01/17 04:58:35;;;;;;;4.63;0.88;;;3.20;99.90;;;;;;4879118;29;20045;-94
2023/01/17 05:01:05;;;;;;;3.50;0.70;;;3.20;99.90;;;;;;4880206;29;20072;-94
2023/01/17 05:03:31;;;;;;;7.43;0.75;;;3.20;99.90;;;;;;4878221;29;20045;-91
2023/01/17 05:05:57;;;;;;;4.28;0.50;;;3.10;99.90;;;;;;4859234;29;20049;-92
2023/01/17 05:08:23;;;;;;;6.68;0.80;;;3.10;99.90;;;;;;4861955;29;20056;-92
2023/01/17 05:10:48;;;;;;;4.47;0.63;;;3.10;99.90;;;;;;4874615;29;20044;-93
2023/01/17 05:13:14;;;;;;;5.20;0.82;;;3.00;99.90;;;;;;4864116;29;20427;-94
2023/01/17 05:15:40;;;;;;;3.95;0.45;;;3.00;99.90;;;;;;4865691;29;20100;-95
2023/01/17 05:18:07;;;;;;;3.75;0.50;;;3.00;99.90;;;;;;4882474;29;20145;-96
2023/01/17 05:20:34;;;;;;;2.83;0.60;;;3.00;99.90;;;;;;4883441;29;20082;-90
2023/01/17 05:23:08;;;;;;;6.40;0.70;;;3.00;99.90;;;;;;4858771;29;20038;-91
2023/01/17 05:29:15;;;;;;;3.35;0.57;;;3.00;99.90;;;;;;4866078;29;20056;-91
2023/01/17 05:31:43;;;;;;;4.63;0.52;;;3.00;99.90;;;;;;4806753;29;20100;-92
2023/01/17 05:34:09;;;;;;;4.93;0.77;;;2.90;99.90;;;;;;4813167;29;20051;-93
2023/01/17 05:36:38;;;;;;;5.47;0.68;;;3.00;99.90;;;;;;4862578;29;20521;-91
2023/01/17 05:39:06;;;;;;;4.25;0.65;;;3.00;99.90;;;;;;4877312;29;20056;-92
2023/01/17 05:44:06;;;;;;;5.35;0.70;;;2.90;99.90;;;;;;5019366;23;20526;-90
2023/01/17 05:46:37;;;;;;;5.30;0.70;;;2.90;99.90;;;;;;4884363;29;20037;-96
2023/01/17 05:49:03;;;;;;;6.97;0.95;;;2.90;99.90;;;;;;4868576;29;20049;-95
2023/01/17 05:51:38;;;;;;;3.95;0.70;;;2.90;99.90;;;;;;4888127;29;20048;-95
2023/01/17 05:54:04;;;;;;;6.97;0.70;;;2.90;99.90;;;;;;4869963;29;20048;-96
2023/01/17 05:56:41;;;;;;;6.97;0.80;;;2.90;99.90;;;;;;4885775;29;20097;-95
2023/01/17 05:59:10;;;;;;;3.65;0.70;;;2.90;99.90;;;;;;4869883;29;20045;-94
2023/01/17 06:01:36;;;;;;;2.60;0.50;;;2.90;99.90;;;;;;4886397;29;20060;-95
2023/01/17 06:04:24;;;;;;;3.47;0.50;;;2.90;99.90;;;;;;4871283;29;20041;-94
2023/01/17 06:06:53;;;;;;;5.43;0.80;;;2.80;99.90;;;;;;4873757;29;20115;-96
2023/01/17 06:09:52;;;;;;;2.22;0.50;;;2.80;99.90;;;;;;4879772;29;20045;-96
2023/01/17 06:12:21;;;;;;;1.55;0.55;;;2.80;99.90;;;;;;4900041;29;20510;-95
2023/01/17 06:14:52;;;;;;;2.28;0.50;;;2.80;99.90;;;;;;4899263;29;20485;-95
2023/01/17 06:17:18;;;;;;;4.18;0.60;;;2.80;99.90;;;;;;4897541;29;20052;-94
2023/01/17 06:19:44;;;;;;;3.38;0.50;;;2.80;99.90;;;;;;4880867;29;20052;-95
2023/01/17 06:22:13;;;;;;;4.25;0.90;;;2.80;99.90;;;;;;4877184;29;20049;-96
2023/01/17 06:24:39;;;;;;;3.78;0.60;;;2.80;99.90;;;;;;4878999;29;20068;-95
2023/01/17 06:27:07;;;;;;;6.43;0.82;;;2.70;99.90;;;;;;4875375;29;20068;-96
2023/01/17 06:29:35;;;;;;;3.65;0.65;;;2.80;99.90;;;;;;4874826;29;20045;-95
2023/01/17 06:32:06;;;;;;;5.45;0.93;;;2.70;99.90;;;;;;4871161;29;20068;-95
2023/01/17 06:34:32;;;;;;;6.97;1.00;;;2.70;99.90;;;;;;4888254;29;20115;-95
2023/01/17 06:37:03;;;;;;;4.30;0.60;;;2.70;99.90;;;;;;4871729;29;20505;-95
2023/01/17 06:39:28;;;;;;;5.22;1.17;;;2.60;99.90;;;;;;4874697;29;20091;-94
2023/01/17 06:41:55;;;;;;;5.95;0.90;;;2.60;99.90;;;;;;4852654;29;20046;-96
2023/01/17 06:44:25;;;;;;;5.75;0.90;;;2.60;99.90;;;;;;4851694;29;20050;-96
2023/01/17 06:46:53;;;;;;;4.15;0.60;;;2.60;99.90;;;;;;4865594;29;20057;-96
2023/01/17 06:53:00;;;;;;;4.80;0.60;;;2.50;99.90;;;;;;4846290;29;20109;-95
2023/01/17 06:58:51;;;;;;;4.97;0.70;;;2.50;99.90;;;;;;4882247;29;20048;-94
2023/01/17 07:01:18;;;;;;;3.45;0.70;;;2.40;99.90;;;;;;4865035;29;20517;-94
2023/01/17 07:03:43;;;;;;;9.02;1.08;;;2.50;99.90;;;;;;4865935;29;20049;-95
2023/01/17 07:06:09;;;;;;;7.30;1.02;;;2.40;99.90;;;;;;4881547;29;20041;-95
2023/01/17 07:08:35;;;;;;;7.28;0.88;;;2.40;99.90;;;;;;4868851;29;20390;-96
2023/01/17 07:11:09;;;;;;;5.60;0.80;;;2.40;99.90;;;;;;4866144;29;20060;-95
2023/01/17 07:13:38;;;;;;;4.63;0.88;;;2.40;99.90;;;;;;4885533;29;20053;-94
2023/01/17 07:16:07;;;;;;;5.97;0.75;;;2.40;99.90;;;;;;4867396;29;20088;-95
2023/01/17 07:18:37;;;;;;;4.90;1.10;;;2.30;99.90;;;;;;4884160;29;20041;-94
2023/01/17 07:21:13;;;;;;;4.78;0.60;;;2.30;99.90;;;;;;4865725;29;20040;-94
2023/01/17 07:23:40;;;;;;;4.43;0.63;;;2.30;99.90;;;;;;4865411;29;20074;-94
2023/01/17 07:26:06;;;;;;;5.97;0.98;;;2.30;99.90;;;;;;4882977;29;20037;-94
2023/01/17 07:28:40;;;;;;;7.22;1.00;;;2.30;99.90;;;;;;4884183;29;20056;-95
2023/01/17 07:31:07;;;;;;;5.07;0.90;;;2.30;99.90;;;;;;4869771;29;20060;-95
2023/01/17 07:33:42;;;;;;;4.20;0.60;;;2.30;99.90;;;;;;4866368;29;20049;-96
2023/01/17 07:36:08;;;;;;;6.22;0.63;;;2.30;99.90;;;;;;4886313;29;20113;-96
2023/01/17 07:38:34;;;;;;;3.45;0.63;;;2.30;99.90;;;;;;4866738;29;20053;-96
2023/01/17 07:41:00;;;;;;;7.45;0.98;;;2.20;99.90;;;;;;4884975;29;20451;-94
2023/01/17 07:43:26;;;;;;;5.38;0.77;;;2.30;99.90;;;;;;4870046;29;20073;-95
2023/01/17 07:45:52;;;;;;;5.65;0.80;;;2.20;99.90;;;;;;4877542;29;20052;-95
2023/01/17 07:48:20;;;;;;;3.10;0.50;;;2.30;99.90;;;;;;4871924;29;20040;-94
2023/01/17 07:50:53;;;;;;;2.72;0.70;;;2.30;99.90;;;;;;4882708;29;20068;-94
2023/01/17 07:53:21;;;;;;;3.80;0.68;;;2.30;99.90;;;;;;4871136;29;20060;-96
2023/01/17 07:55:47;;;;;;;4.32;0.73;;;2.20;99.90;;;;;;4881675;29;20045;-96
2023/01/17 07:58:13;;;;;;;5.53;0.70;;;2.20;99.90;;;;;;4871521;29;20061;-93
2023/01/17 08:00:48;;;;;;;3.53;0.70;;;2.20;99.90;;;;;;4886661;29;20048;-94
2023/01/17 08:03:16;;;;;;;2.20;0.63;;;2.20;99.90;;;;;;4868852;29;20045;-94
2023/01/17 08:05:55;;;;;;;5.97;0.90;;;2.20;99.90;;;;;;4878388;29;20049;-96
2023/01/17 08:08:23;;;;;;;5.93;0.93;;;2.30;99.90;;;;;;4878810;29;20055;-96
2023/01/17 08:10:50;;;;;;;4.28;0.80;;;2.20;99.90;;;;;;4895751;29;20060;-96
2023/01/17 08:13:16;;;;;;;3.35;1.10;;;2.20;99.90;;;;;;4877210;29;20049;-96
2023/01/17 08:15:42;;;;;;;3.38;0.90;;;2.10;99.90;;;;;;4882440;29;20032;-96
2023/01/17 08:18:08;;;;;;;6.82;1.38;;;2.20;99.90;;;;;;4880667;29;20069;-96
2023/01/17 08:20:34;;;;;;;5.03;1.55;;;2.20;99.90;;;;;;4876132;29;20494;-96
2023/01/17 08:22:59;;;;;;;4.53;1.08;;;2.20;99.90;;;;;;4886667;29;20055;-93
2023/01/17 08:25:26;;;;;;;6.97;1.10;;;2.20;99.90;;;;;;4864480;29;20053;-95
2023/01/17 08:27:56;;;;;;;5.47;0.95;;;2.10;99.90;;;;;;4869114;29;20045;-96
2023/01/17 08:30:22;;;;;;;7.10;1.17;;;2.10;99.90;;;;;;4872695;29;20056;-96
2023/01/17 08:32:52;;;;;;;5.05;1.05;;;2.10;99.90;;;;;;4869385;29;20045;-95
2023/01/17 08:35:18;;;;;;;3.80;0.98;;;2.10;99.90;;;;;;4868399;29;20136;-94
2023/01/17 08:37:44;;;;;;;4.47;0.90;;;2.10;99.90;;;;;;4869226;29;20045;-96
2023/01/17 08:40:10;;;;;;;6.53;1.02;;;2.10;99.90;;;;;;4953051;23;20025;-92
2023/01/17 08:42:39;;;;;;;7.10;1.08;;;2.10;99.90;;;;;;4868907;29;20060;-95
2023/01/17 08:45:05;;;;;;;4.88;0.80;;;2.10;99.90;;;;;;4864898;29;20069;-94
2023/01/17 08:47:32;;;;;;;4.85;0.80;;;2.10;99.90;;;;;;4884220;29;20061;-95
2023/01/17 08:49:59;;;;;;;4.93;1.00;;;2.10;99.90;;;;;;4872056;29;20052;-96
2023/01/17 08:52:25;;;;;;;3.92;0.85;;;2.10;99.90;;;;;;4886331;29;20052;-95
2023/01/17 08:54:52;;;;;;;3.67;0.82;;;2.10;99.90;;;;;;4884134;29;20041;-96
2023/01/17 08:57:19;;;;;;;4.82;0.95;;;2.10;99.90;;;;;;4867560;29;20148;-95
2023/01/17 08:59:45;;;;;;;6.65;0.95;;;2.10;99.90;;;;;;4868349;29;20045;-95
2023/01/17 09:02:16;;;;;;;4.32;1.20;;;2.10;99.90;;;;;;4867861;29;20053;-94
2023/01/17 09:04:46;;;;;;;4.68;1.15;;;2.10;99.90;;;;;;4867276;29;20049;-94
2023/01/17 09:07:13;;;;;;;5.82;1.10;;;2.10;99.90;;;;;;4883989;29;20051;-94
2023/01/17 09:09:38;;;;;;;5.88;1.25;;;2.10;99.90;;;;;;4884209;29;20041;-96
2023/01/17 09:12:05;;;;;;;6.07;1.38;;;2.10;99.90;;;;;;4870472;29;20100;-96
2023/01/17 09:14:31;;;;;;;7.78;1.25;;;2.10;99.90;;;;;;4894880;29;20073;-96
2023/01/17 09:16:56;;;;;;;6.47;1.00;;;2.10;99.90;;;;;;4885292;29;20072;-96
2023/01/17 09:19:22;;;;;;;3.85;0.77;;;2.10;99.90;;;;;;4902638;29;20055;-96
2023/01/17 09:21:50;;;;;;;4.90;1.05;;;2.10;99.90;;;;;;4886169;29;20049;-96
2023/01/17 09:24:16;;;;;;;5.55;1.00;;;2.20;99.90;;;;;;4884007;29;20049;-96
2023/01/17 09:33:07;;;;;;;7.32;1.10;;;2.20;99.90;;;;;;4892981;23;20081;-96
2023/01/17 09:38:09;;;;;;;6.30;1.20;;;2.20;99.90;;;;;;5006050;23;20051;-96
2023/01/17 09:40:42;;;;;;;5.95;1.15;;;2.30;99.90;;;;;;4881068;29;20073;-94
2023/01/17 09:43:22;;;;;;;4.57;1.00;;;2.30;99.90;;;;;;4887285;29;20080;-94
2023/01/17 09:45:48;;;;;;;5.30;1.05;;;2.30;99.90;;;;;;4872663;29;20073;-96
2023/01/17 09:48:23;;;;;;;3.55;0.90;;;2.40;99.90;;;;;;4883980;29;20059;-96
2023/01/17 09:51:01;;;;;;;4.30;1.05;;;2.40;99.90;;;;;;4898610;29;20104;-95
2023/01/17 09:53:32;;;;;;;7.13;1.00;;;2.40;99.90;;;;;;4872494;29;20064;-95
2023/01/17 09:56:10;;;;;;;3.88;0.95;;;2.50;99.90;;;;;;4895385;29;20060;-96
2023/01/17 09:58:57;;;;;;;5.57;1.00;;;2.50;99.90;;;;;;4878163;29;20040;-95
2023/01/17 10:01:38;;;;;;;5.60;1.00;;;2.50;99.90;;;;;;4897414;29;20049;-95
2023/01/17 10:04:28;;;;;;;7.72;1.27;;;2.60;99.90;;;;;;4887351;29;20045;-96
2023/01/17 10:07:09;;;;;;;6.05;1.20;;;2.60;99.90;;;;;;4869224;29;20084;-91
2023/01/17 10:09:55;;;;;;;7.18;1.08;;;2.60;99.90;;;;;;4883287;29;20049;-94
2023/01/17 10:12:30;;;;;;;4.85;1.20;;;2.70;99.90;;;;;;4863781;29;20053;-94
2023/01/17 10:15:05;;;;;;;7.60;1.20;;;2.70;99.90;;;;;;4847724;29;20096;-95
2023/01/17 10:17:57;;;;;;;7.18;1.20;;;2.70;99.90;;;;;;4881365;29;20102;-94
2023/01/17 10:20:49;;;;;;;5.68;1.40;;;2.80;99.90;;;;;;4855610;29;20080;-94
2023/01/17 10:23:15;;;;;;;6.65;1.30;;;2.80;99.90;;;;;;4883119;29;20045;-95
2023/01/17 10:25:48;;;;;;;6.70;1.20;;;2.90;99.90;;;;;;4882943;29;20096;-94
2023/01/17 10:28:16;;;;;;;6.00;1.20;;;2.90;99.90;;;;;;4865887;29;20041;-95
2023/01/17 10:30:48;;;;;;;7.50;1.40;;;3.00;99.90;;;;;;4865814;29;20057;-94
2023/01/17 10:33:19;;;;;;;14.23;3.28;;;3.00;99.90;;;;;;4865791;29;20096;-93
2023/01/17 10:35:55;;;;;;;14.73;4.47;;;3.10;99.90;;;;;;4881866;29;20041;-94
2023/01/17 10:38:29;;;;;;;7.10;2.13;;;3.10;99.90;;;;;;4865391;29;20057;-95
2023/01/17 10:41:16;;;;;;;5.57;1.38;;;3.10;99.90;;;;;;4882062;29;20049;-95
2023/01/17 10:43:51;;;;;;;6.65;1.30;;;3.20;99.90;;;;;;4866782;29;20049;-95
2023/01/17 10:46:22;;;;;;;5.95;2.00;;;3.30;99.90;;;;;;4877441;29;20048;-96
2023/01/17 10:48:51;;;;;;;7.63;1.85;;;3.30;99.90;;;;;;4879592;29;20105;-96
2023/01/17 10:51:25;;;;;;;5.50;1.40;;;3.30;99.90;;;;;;4891527;29;20549;-96
2023/01/17 10:54:11;;;;;;;4.53;1.20;;;3.40;99.90;;;;;;4882266;29;20048;-96
2023/01/17 10:56:39;;;;;;;3.63;1.05;;;3.40;99.90;;;;;;4871973;29;20055;-96
2023/01/17 10:59:22;;;;;;;7.15;1.67;;;3.50;99.90;;;;;;4869855;29;20041;-95
2023/01/17 11:01:48;;;;;;;4.75;1.40;;;3.50;99.90;;;;;;4857841;29;20044;-96
2023/01/17 11:04:46;;;;;;;7.78;1.25;;;3.60;99.90;;;;;;4883943;29;20049;-94
2023/01/17 11:07:20;;;;;;;5.18;1.30;;;3.60;99.90;;;;;;4848303;29;20057;-95
2023/01/17 11:09:52;;;;;;;7.00;1.42;;;3.70;99.90;;;;;;4878831;29;20120;-96
2023/01/17 11:12:43;;;;;;;8.65;1.67;;;3.70;99.90;;;;;;4871388;29;20053;-96
2023/01/17 11:15:22;;;;;;;7.70;1.70;;;3.70;99.90;;;;;;4881990;29;20056;-96
2023/01/17 11:18:00;;;;;;;3.80;1.23;;;3.80;99.90;;;;;;4856411;29;20053;-96
2023/01/17 11:20:45;;;;;;;5.95;1.48;;;3.80;99.90;;;;;;4868368;29;20057;-94
2023/01/17 11:23:23;;;;;;;5.15;1.13;;;3.90;99.90;;;;;;4869660;29;20053;-95
2023/01/17 11:26:01;;;;;;;4.65;1.10;;;3.90;99.90;;;;;;4866387;29;20435;-95
2023/01/17 11:28:29;;;;;;;5.38;1.20;;;3.90;99.90;;;;;;4882677;29;20228;-94
2023/01/17 11:30:56;;;;;;;6.57;1.30;;;4.00;99.90;;;;;;4872298;29;20087;-94
2023/01/17 11:33:46;;;;;;;5.82;1.00;;;4.10;99.90;;;;;;4880956;29;20109;-94
2023/01/17 11:36:21;;;;;;;3.80;0.90;;;4.00;99.90;;;;;;4874349;29;20557;-95
2023/01/17 11:39:16;;;;;;;3.30;0.95;;;4.10;99.90;;;;;;4883159;29;20060;-95
2023/01/17 11:41:42;;;;;;;6.40;1.20;;;4.10;99.90;;;;;;4824557;29;20075;-89
2023/01/17 11:44:27;;;;;;;7.53;1.25;;;4.10;99.90;;;;;;4903735;29;20044;-95
2023/01/17 11:47:13;;;;;;;6.35;1.35;;;4.20;99.90;;;;;;4900767;29;20486;-94
2023/01/17 11:49:41;;;;;;;6.30;0.93;;;4.20;99.90;;;;;;4905249;29;20052;-96
2023/01/17 11:52:23;;;;;;;8.18;1.10;;;4.30;99.90;;;;;;4904673;29;20055;-95
2023/01/17 11:54:50;;;;;;;6.45;2.15;;;4.30;99.90;;;;;;4885991;29;20083;-91
2023/01/17 11:57:27;;;;;;;10.02;3.97;;;4.40;99.90;;;;;;4895188;29;20037;-95
2023/01/17 12:00:03;;;;;;;6.60;1.40;;;4.40;99.90;;;;;;4864113;29;20041;-91
2023/01/17 12:03:06;;;;;;;5.20;1.42;;;4.40;99.90;;;;;;4879916;29;20056;-93
2023/01/17 12:05:41;;;;;;;6.47;1.92;;;4.50;99.90;;;;;;4882373;29;20052;-95
2023/01/17 12:08:41;;;;;;;6.65;1.20;;;4.40;99.90;;;;;;4864466;29;20084;-91
2023/01/17 12:11:21;;;;;;;8.73;1.40;;;4.50;99.90;;;;;;4879745;29;20420;-96
2023/01/17 12:13:59;;;;;;;7.13;2.38;;;4.50;99.90;;;;;;4881775;29;20048;-95
2023/01/17 12:16:36;;;;;;;6.00;1.80;;;4.50;99.90;;;;;;4863332;29;20520;-92
2023/01/17 12:19:41;;;;;;;8.20;2.10;;;4.50;99.90;;;;;;4844754;29;20093;-93
2023/01/17 12:22:28;;;;;;;13.13;5.35;;;4.50;99.90;;;;;;4863529;29;20086;-92
2023/01/17 12:25:32;;;;;;;4.38;1.20;;;4.50;99.90;;;;;;4847772;29;20081;-94
2023/01/17 12:27:58;;;;;;;8.85;1.10;;;4.50;99.90;;;;;;4769136;29;20060;-93
2023/01/17 12:30:48;;;;;;;3.53;0.90;;;4.50;99.90;;;;;;4845237;29;20045;-93
2023/01/17 12:33:54;;;;;;;5.82;0.85;;;4.50;99.90;;;;;;4858005;29;20491;-93
2023/01/17 12:36:44;;;;;;;6.43;1.23;;;4.60;99.90;;;;;;4861341;29;20499;-93
2023/01/17 12:39:36;;;;;;;8.57;2.20;;;4.60;99.90;;;;;;4876848;29;20053;-94
2023/01/17 12:42:19;;;;;;;14.23;5.47;;;4.60;99.90;;;;;;4857363;29;20045;-93
2023/01/17 12:45:03;;;;;;;;;;;4.70;99.60;;;;;;4860749;29;20041;-92
2023/01/17 12:47:32;;;;;;;5.30;2.03;;;4.60;99.30;;;;;;4857909;29;19978;-93
2023/01/17 12:50:14;;;;;;;7.97;2.53;;;4.70;99.70;;;;;;4851405;29;20301;-95
2023/01/17 12:53:08;;;;;;;13.05;4.28;;;4.70;99.20;;;;;;4879983;29;20096;-93
2023/01/17 12:55:55;;;;;;;10.77;4.20;;;4.70;98.80;;;;;;4867554;29;20037;-95
2023/01/17 12:58:29;;;;;;;10.07;3.20;;;4.70;98.40;;;;;;4878560;29;20060;-94
2023/01/17 13:01:15;;;;;;;12.75;4.35;;;4.70;98.40;;;;;;4888087;29;20045;-94
2023/01/17 13:04:36;;;;;;;6.97;1.45;;;4.80;98.20;;;;;;4875518;29;20045;-95
2023/01/17 13:07:29;;;;;;;9.23;2.45;;;4.70;97.60;;;;;;4844928;29;20100;-92
2023/01/17 13:10:08;;;;;;;9.13;2.22;;;4.70;98.30;;;;;;4871078;29;20048;-93
2023/01/17 13:12:37;;;;;;;5.70;1.95;;;4.80;97.90;;;;;;4879516;29;20150;-92
2023/01/17 13:15:17;;;;;;;9.05;3.20;;;4.80;97.90;;;;;;4879842;29;20045;-93
2023/01/17 13:17:56;;;;;;;3.38;1.13;;;4.80;97.70;;;;;;4879218;29;20053;-92
2023/01/17 13:20:32;;;;;;;4.15;1.67;;;4.80;97.50;;;;;;4862589;29;20060;-91
2023/01/17 13:23:11;;;;;;;9.60;4.28;;;4.80;97.20;;;;;;4879730;29;20125;-93
2023/01/17 13:25:51;;;;;;;6.85;1.80;;;4.80;97.00;;;;;;4862367;29;20213;-93
2023/01/17 13:28:23;;;;;;;8.20;2.30;;;4.80;97.10;;;;;;4862981;29;20049;-92
2023/01/17 13:31:13;;;;;;;4.97;1.10;;;4.80;97.10;;;;;;4879413;29;20525;-93
2023/01/17 13:33:57;;;;;;;7.85;3.22;;;4.80;97.00;;;;;;4862684;29;20078;-91
2023/01/17 13:36:37;;;;;;;5.85;1.17;;;4.90;96.80;;;;;;4879884;29;20152;-91
2023/01/17 13:39:44;;;;;;;4.57;1.00;;;4.90;96.60;;;;;;4882279;29;20052;-91
2023/01/17 13:42:27;;;;;;;5.15;1.05;;;4.90;96.30;;;;;;4882674;29;20060;-91
2023/01/17 13:44:56;;;;;;;6.93;0.90;;;4.90;96.50;;;;;;4865228;29;20479;-92
2023/01/17 13:47:26;;;;;;;3.65;0.73;;;4.80;96.50;;;;;;4882365;29;20052;-91
2023/01/17 13:49:55;;;;;;;7.43;1.20;;;4.90;96.20;;;;;;4882024;29;20574;-91
2023/01/17 13:52:22;;;;;;;3.13;0.82;;;4.80;96.10;;;;;;4864695;29;20045;-92
2023/01/17 13:54:51;;;;;;;5.43;0.70;;;4.80;96.10;;;;;;4865906;29;20057;-92
2023/01/17 13:57:27;;;;;;;5.28;1.02;;;4.80;96.10;;;;;;4880668;29;20045;-92
2023/01/17 13:59:53;;;;;;;4.50;0.60;;;4.80;95.90;;;;;;4877499;29;20053;-91
2023/01/17 14:02:31;;;;;;;4.30;0.80;;;4.80;96.10;;;;;;4864649;29;20052;-92
2023/01/17 14:05:22;;;;;;;2.47;0.77;;;4.80;96.00;;;;;;4865907;29;20057;-91
2023/01/17 14:08:01;;;;;;;5.72;1.08;;;4.80;96.10;;;;;;4883160;29;20049;-91
2023/01/17 14:10:39;;;;;;;3.95;1.00;;;4.80;96.20;;;;;;4870209;29;20076;-91
2023/01/17 14:13:24;;;;;;;3.65;0.80;;;4.80;96.40;;;;;;4867389;29;20052;-91
2023/01/17 14:15:50;;;;;;;6.45;0.73;;;4.80;96.20;;;;;;4872474;29;20045;-92
2023/01/17 14:18:40;;;;;;;2.85;0.60;;;4.80;96.70;;;;;;4882295;29;20511;-91
2023/01/17 14:21:34;;;;;;;4.18;0.68;;;4.80;95.60;;;;;;4864396;29;20582;-91
2023/01/17 14:24:09;;;;;;;7.05;1.02;;;4.80;95.70;;;;;;4858728;29;20060;-91
2023/01/17 14:26:35;;;;;;;4.57;0.80;;;4.80;96.10;;;;;;4881616;29;20045;-92
2023/01/17 14:29:38;;;;;;;4.63;0.98;;;4.80;96.30;;;;;;4867739;29;20060;-92
2023/01/17 14:32:09;;;;;;;2.80;0.83;;;4.80;96.10;;;;;;4881856;29;20193;-92
2023/01/17 14:34:35;;;;;;;3.65;0.85;;;4.80;96.80;;;;;;4864591;29;20049;-91
2023/01/17 14:37:31;;;;;;;4.15;1.23;;;4.80;97.10;;;;;;4880920;29;20088;-91
2023/01/17 14:39:58;;;;;;;3.72;0.93;;;4.80;96.90;;;;;;4875404;29;20464;-92
2023/01/17 14:42:27;;;;;;;7.07;1.00;;;4.80;97.40;;;;;;4880647;29;20084;-93
2023/01/17 14:45:01;;;;;;;4.57;1.00;;;4.70;97.50;;;;;;4859809;29;20037;-93
2023/01/17 14:47:33;;;;;;;2.58;0.90;;;4.80;97.50;;;;;;4864640;29;20127;-93
2023/01/17 14:50:26;;;;;;;4.85;0.90;;;4.80;97.70;;;;;;4864620;29;20049;-94
2023/01/17 14:53:18;;;;;;;2.85;0.75;;;4.80;98.00;;;;;;4882045;29;20045;-95
2023/01/17 14:55:47;;;;;;;11.02;4.68;;;4.80;97.90;;;;;;4865602;29;20052;-94
2023/01/17 14:58:33;;;;;;;5.18;2.00;;;4.80;98.00;;;;;;4865340;29;20486;-94
2023/01/17 15:01:26;;;;;;;6.28;2.20;;;4.80;97.80;;;;;;4868542;29;20052;-92
2023/01/17 15:03:55;;;;;;;7.40;2.20;;;4.70;97.50;;;;;;4844761;29;20065;-90
2023/01/17 15:06:41;;;;;;;5.07;1.00;;;4.70;97.20;;;;;;4877315;29;20105;-90
2023/01/17 15:09:20;;;;;;;4.70;1.27;;;4.70;96.70;;;;;;4845357;29;20046;-93
2023/01/17 15:11:47;;;;;;;7.97;2.92;;;4.60;96.80;;;;;;4864357;29;20482;-95
2023/01/17 15:14:37;;;;;;;9.57;2.20;;;4.70;97.00;;;;;;4864847;29;20080;-91